Time;durP1;ratioP1;P1;durP2;ratioP2;P2;SDS_P1;SDS_P2;PMS_P1;PMS_P2;Temp;Humidity;BMP_temperature;BMP_pressure;BME280_temperature;BME280_humidity;BME280_pressure;Samples;Min_cycle;Max_cycle;Signal;HPM_P1;HPM_P2
2021/12/30 00:02:18;;;;;;;23.50;14.03;;;6.70;99.90;;;;;;4966406;28;20185;-96
2021/12/30 00:04:48;;;;;;;24.50;13.40;;;6.70;99.90;;;;;;4965998;28;20267;-94
2021/12/30 00:07:14;;;;;;;25.63;13.93;;;6.60;99.90;;;;;;4965918;28;20306;-95
2021/12/30 00:09:46;;;;;;;22.63;13.53;;;6.70;99.90;;;;;;4964546;28;20212;-96
2021/12/30 00:12:14;;;;;;;27.67;13.93;;;6.80;99.90;;;;;;4965083;28;20180;-95
2021/12/30 00:14:43;;;;;;;23.60;14.00;;;6.80;99.90;;;;;;4965204;28;20192;-95
2021/12/30 00:17:12;;;;;;;26.13;13.97;;;6.90;99.90;;;;;;4965262;28;20212;-94
2021/12/30 00:19:44;;;;;;;30.20;14.37;;;6.80;99.90;;;;;;4965527;28;20216;-96
2021/12/30 00:22:16;;;;;;;29.47;14.07;;;6.70;99.90;;;;;;4965595;28;20215;-94
2021/12/30 00:24:44;;;;;;;26.73;14.33;;;6.80;99.90;;;;;;4966012;28;20236;-95
2021/12/30 00:27:11;;;;;;;27.33;14.70;;;6.80;99.90;;;;;;4968007;28;20263;-94
2021/12/30 00:29:38;;;;;;;26.40;14.43;;;6.80;99.90;;;;;;4967207;28;20232;-94
2021/12/30 00:32:04;;;;;;;30.10;15.23;;;6.90;99.90;;;;;;4966462;28;20177;-94
2021/12/30 00:34:30;;;;;;;33.93;15.30;;;6.90;99.90;;;;;;4965754;28;20184;-94
2021/12/30 00:37:07;;;;;;;34.80;16.13;;;6.90;99.90;;;;;;4964750;28;20208;-94
2021/12/30 00:39:35;;;;;;;32.43;16.20;;;7.00;99.90;;;;;;4965291;28;20180;-95
2021/12/30 00:42:12;;;;;;;36.57;15.50;;;7.10;99.90;;;;;;4964200;28;20251;-93
2021/12/30 00:44:49;;;;;;;34.70;16.60;;;7.10;99.90;;;;;;4964429;28;20721;-94
2021/12/30 00:47:17;;;;;;;38.37;16.53;;;7.20;99.90;;;;;;4964106;28;20295;-92
2021/12/30 00:49:43;;;;;;;34.80;16.37;;;7.20;99.90;;;;;;4965392;28;20173;-93
2021/12/30 00:52:10;;;;;;;40.10;17.90;;;7.30;99.90;;;;;;4964404;28;20183;-94
2021/12/30 00:54:44;;;;;;;39.43;16.80;;;7.40;99.90;;;;;;4966653;28;20181;-93
2021/12/30 00:57:12;;;;;;;34.20;16.13;;;7.40;99.90;;;;;;4968138;28;20212;-95
2021/12/30 00:59:40;;;;;;;34.90;16.57;;;7.40;99.90;;;;;;4967966;28;20216;-92
2021/12/30 01:02:09;;;;;;;41.37;17.73;;;7.50;99.90;;;;;;4968314;28;20181;-94
2021/12/30 01:04:37;;;;;;;43.17;17.53;;;7.50;99.90;;;;;;4968251;28;20207;-93
2021/12/30 01:07:07;;;;;;;33.13;16.37;;;7.50;99.90;;;;;;4967986;28;20204;-95
2021/12/30 01:09:33;;;;;;;36.47;16.90;;;7.50;99.90;;;;;;4967924;28;20185;-93
2021/12/30 01:12:04;;;;;;;38.83;16.83;;;7.50;99.90;;;;;;4968105;28;20726;-95
2021/12/30 01:14:45;;;;;;;45.73;17.73;;;7.50;99.90;;;;;;4969109;28;20538;-95
2021/12/30 01:20:18;;;;;;;53.97;18.47;;;7.60;99.90;;;;;;4981157;28;20192;-95
2021/12/30 01:22:54;;;;;;;49.30;20.17;;;7.60;99.90;;;;;;4968870;28;20183;-95
2021/12/30 01:25:20;;;;;;;53.33;19.37;;;7.70;99.90;;;;;;4968603;28;20208;-95
2021/12/30 01:27:46;;;;;;;59.80;22.00;;;7.80;99.90;;;;;;4968007;28;20204;-96
2021/12/30 01:30:23;;;;;;;59.57;21.53;;;7.80;99.90;;;;;;4968102;28;20188;-95
2021/12/30 01:32:57;;;;;;;64.00;23.03;;;7.80;99.90;;;;;;4968154;28;20216;-95
2021/12/30 01:35:25;;;;;;;73.73;23.63;;;7.90;99.90;;;;;;4968056;28;20242;-93
2021/12/30 01:37:58;;;;;;;72.30;23.60;;;7.90;99.90;;;;;;4968467;28;20258;-95
2021/12/30 01:40:40;;;;;;;79.30;25.57;;;8.00;99.90;;;;;;4967832;28;20307;-95
2021/12/30 01:43:29;;;;;;;76.15;25.70;;;8.00;99.90;;;;;;4968036;28;20189;-95
2021/12/30 01:45:56;;;;;;;66.43;23.43;;;8.10;99.90;;;;;;4968490;28;20187;-94
2021/12/30 01:48:23;;;;;;;78.47;26.50;;;8.10;99.90;;;;;;4967571;28;20279;-96
2021/12/30 01:50:51;;;;;;;77.50;27.57;;;8.10;99.90;;;;;;4968047;28;20191;-94
2021/12/30 01:53:20;;;;;;;84.47;28.03;;;8.20;99.90;;;;;;4968119;28;20677;-95
2021/12/30 01:55:56;;;;;;;81.63;27.33;;;8.20;99.90;;;;;;4967701;28;20686;-95
2021/12/30 01:58:43;;;;;;;86.37;29.27;;;8.30;99.90;;;;;;4967503;28;20185;-95
2021/12/30 02:01:23;;;;;;;87.60;26.60;;;8.20;99.90;;;;;;4968410;28;20180;-93
2021/12/30 02:03:51;;;;;;;75.37;26.80;;;8.30;99.90;;;;;;4968397;28;20208;-96
2021/12/30 02:06:17;;;;;;;77.43;27.97;;;8.30;99.90;;;;;;4968351;28;20193;-95
2021/12/30 02:08:47;;;;;;;92.03;30.27;;;8.30;99.90;;;;;;4969406;28;20200;-94
2021/12/30 02:11:13;;;;;;;78.73;28.17;;;8.30;99.90;;;;;;4967588;28;20185;-95
2021/12/30 02:13:41;;;;;;;78.27;28.40;;;8.40;99.90;;;;;;4967395;28;20366;-96
2021/12/30 02:16:07;;;;;;;80.07;27.27;;;8.40;99.90;;;;;;4967740;28;20192;-95
2021/12/30 02:18:33;;;;;;;86.50;27.63;;;8.40;99.90;;;;;;4967984;28;20247;-93
2021/12/30 02:21:02;;;;;;;78.67;28.03;;;8.40;99.90;;;;;;4968646;28;20210;-95
2021/12/30 02:23:34;;;;;;;83.17;27.83;;;8.40;99.90;;;;;;4967649;28;20224;-94
2021/12/30 02:26:03;;;;;;;91.93;28.93;;;8.40;99.90;;;;;;4968246;28;20271;-94
2021/12/30 02:28:32;;;;;;;75.90;27.17;;;8.40;99.90;;;;;;4966610;28;20319;-95
2021/12/30 02:31:12;;;;;;;82.50;28.37;;;8.40;99.90;;;;;;4968267;28;20177;-95
2021/12/30 02:33:41;;;;;;;76.40;27.10;;;8.40;99.90;;;;;;4968687;28;20227;-94
2021/12/30 02:36:13;;;;;;;79.30;28.17;;;8.40;99.90;;;;;;4969108;28;20203;-94
2021/12/30 02:38:44;;;;;;;70.83;26.60;;;8.40;99.90;;;;;;4967249;28;20177;-95
2021/12/30 02:41:17;;;;;;;78.00;27.17;;;8.50;99.90;;;;;;4968512;28;20239;-94
2021/12/30 02:43:47;;;;;;;95.33;29.30;;;8.50;99.90;;;;;;4968496;28;20240;-95
2021/12/30 02:46:23;;;;;;;85.50;28.83;;;8.50;99.90;;;;;;4967264;28;20173;-94
2021/12/30 02:48:52;;;;;;;86.13;29.20;;;8.60;99.90;;;;;;4967087;28;20192;-95
2021/12/30 02:51:21;;;;;;;87.67;29.30;;;8.70;99.90;;;;;;4967223;28;20192;-95
2021/12/30 02:53:47;;;;;;;84.07;29.10;;;8.70;99.90;;;;;;4967156;28;20264;-93
2021/12/30 02:56:13;;;;;;;86.73;28.67;;;8.80;99.90;;;;;;4966586;28;20208;-94
2021/12/30 02:58:42;;;;;;;76.20;27.27;;;8.80;99.90;;;;;;4966448;28;20244;-96
2021/12/30 03:01:14;;;;;;;69.93;26.20;;;8.80;99.90;;;;;;4965858;28;20181;-95
2021/12/30 03:03:41;;;;;;;73.27;25.97;;;8.90;99.90;;;;;;4965932;28;20209;-95
2021/12/30 03:06:16;;;;;;;65.77;25.57;;;9.00;99.90;;;;;;4966494;28;20177;-94
2021/12/30 03:08:51;;;;;;;52.63;21.93;;;9.00;99.90;;;;;;4965903;28;20227;-95
2021/12/30 03:11:22;;;;;;;54.23;21.97;;;9.10;99.90;;;;;;4965461;28;20168;-94
2021/12/30 03:13:55;;;;;;;53.67;20.53;;;9.10;99.90;;;;;;4965742;28;20173;-94
2021/12/30 03:16:34;;;;;;;54.13;19.67;;;9.10;99.90;;;;;;4965346;28;20212;-94
2021/12/30 03:19:00;;;;;;;46.70;18.37;;;9.00;99.90;;;;;;4966024;28;20248;-94
2021/12/30 03:21:29;;;;;;;39.47;17.23;;;9.10;99.90;;;;;;4965162;28;20172;-96
2021/12/30 03:23:59;;;;;;;36.57;16.83;;;9.30;99.90;;;;;;5331781;23;20379;-95
2021/12/30 03:26:26;;;;;;;41.47;15.83;;;9.10;99.90;;;;;;4956796;28;20652;-94
2021/12/30 03:28:52;;;;;;;41.63;15.77;;;9.00;99.90;;;;;;4956838;29;20234;-94
2021/12/30 03:31:20;;;;;;;39.33;14.77;;;8.90;99.90;;;;;;4956395;28;20196;-94
2021/12/30 03:33:46;;;;;;;39.47;15.07;;;9.00;99.90;;;;;;4941318;29;20197;-92
2021/12/30 03:36:13;;;;;;;45.27;14.53;;;9.00;99.90;;;;;;4940513;29;20198;-94
2021/12/30 03:38:42;;;;;;;40.10;14.13;;;8.90;99.90;;;;;;4942626;29;20204;-94
2021/12/30 03:41:10;;;;;;;35.47;15.40;;;8.90;99.90;;;;;;4951869;28;20199;-94
2021/12/30 03:43:36;;;;;;;37.70;14.90;;;8.90;99.90;;;;;;4953393;29;20213;-95
2021/12/30 03:46:05;;;;;;;31.90;14.17;;;9.10;99.90;;;;;;4951349;29;20542;-94
2021/12/30 03:48:34;;;;;;;41.63;14.37;;;9.10;99.90;;;;;;4956439;29;20185;-95
2021/12/30 03:51:05;;;;;;;38.47;14.80;;;9.20;99.90;;;;;;4940107;29;20194;-94
2021/12/30 03:53:38;;;;;;;34.40;13.47;;;9.30;99.90;;;;;;4940553;29;20197;-95
2021/12/30 03:56:13;;;;;;;36.23;14.17;;;9.20;99.90;;;;;;4955774;28;20642;-95
2021/12/30 03:58:41;;;;;;;42.73;15.10;;;9.10;99.90;;;;;;4959770;28;20247;-94
2021/12/30 04:01:09;;;;;;;43.13;15.53;;;9.10;99.90;;;;;;4959034;28;20192;-94
2021/12/30 04:03:35;;;;;;;40.60;15.55;;;9.10;99.90;;;;;;4959387;28;20212;-94
2021/12/30 04:06:02;;;;;;;34.47;14.87;;;9.20;99.90;;;;;;4959481;28;20201;-94
2021/12/30 04:08:27;;;;;;;44.20;15.80;;;9.30;99.90;;;;;;4958450;28;20180;-94
2021/12/30 04:10:55;;;;;;;47.20;16.37;;;9.20;99.90;;;;;;4965873;28;20251;-95
2021/12/30 04:13:22;;;;;;;37.67;14.83;;;9.10;99.90;;;;;;4940236;29;20185;-95
2021/12/30 04:15:47;;;;;;;47.10;14.00;;;9.00;99.90;;;;;;4956336;29;20206;-95
2021/12/30 04:18:13;;;;;;;46.43;15.73;;;8.90;99.90;;;;;;4961876;28;20188;-95
2021/12/30 04:20:39;;;;;;;38.57;15.17;;;8.80;99.90;;;;;;4954783;29;20205;-95
2021/12/30 04:23:05;;;;;;;48.00;16.23;;;8.80;99.90;;;;;;4940044;28;20189;-94
2021/12/30 04:25:31;;;;;;;42.67;16.03;;;8.80;99.90;;;;;;4948064;28;20239;-94
2021/12/30 04:27:56;;;;;;;46.40;16.50;;;8.70;99.90;;;;;;4954539;28;20221;-95
2021/12/30 04:30:22;;;;;;;40.57;17.43;;;8.70;99.90;;;;;;4949940;29;20624;-94
2021/12/30 04:32:48;;;;;;;48.60;17.20;;;8.70;99.90;;;;;;4956076;29;20664;-95
2021/12/30 04:35:14;;;;;;;50.40;16.60;;;8.70;99.90;;;;;;4957903;28;20196;-94
2021/12/30 04:37:40;;;;;;;48.40;15.83;;;8.70;99.90;;;;;;4957201;28;20200;-95
2021/12/30 04:40:07;;;;;;;47.33;14.87;;;8.70;99.90;;;;;;4958721;28;20621;-94
2021/12/30 04:42:33;;;;;;;42.43;15.43;;;8.70;99.90;;;;;;4954882;29;20213;-95
2021/12/30 04:44:59;;;;;;;46.80;16.53;;;8.70;99.90;;;;;;4946252;28;20315;-95
2021/12/30 04:47:25;;;;;;;45.23;14.97;;;8.60;99.90;;;;;;4955151;28;20599;-95
2021/12/30 04:49:52;;;;;;;47.63;15.63;;;8.70;99.90;;;;;;4957158;28;20243;-94
2021/12/30 04:52:19;;;;;;;49.07;15.13;;;8.60;99.90;;;;;;4959268;28;20188;-95
2021/12/30 04:54:45;;;;;;;40.03;13.70;;;8.60;99.90;;;;;;4974605;28;20204;-93
2021/12/30 04:57:11;;;;;;;39.93;13.27;;;8.70;99.90;;;;;;4958544;28;20279;-95
2021/12/30 04:59:36;;;;;;;52.23;13.60;;;8.60;99.90;;;;;;4958670;28;20231;-94
2021/12/30 05:02:02;;;;;;;40.50;12.33;;;8.80;99.90;;;;;;4953764;29;20196;-94
2021/12/30 05:04:28;;;;;;;41.97;12.30;;;8.90;99.90;;;;;;4949827;28;20306;-95
2021/12/30 05:06:54;;;;;;;40.70;12.10;;;9.00;99.90;;;;;;4958178;28;20291;-93
2021/12/30 05:09:19;;;;;;;43.70;11.33;;;8.90;99.90;;;;;;4948656;28;20197;-94
2021/12/30 05:11:45;;;;;;;39.27;12.03;;;9.00;99.90;;;;;;4958566;28;20655;-95
2021/12/30 05:14:12;;;;;;;39.17;12.17;;;9.00;99.90;;;;;;4954484;28;20194;-95
2021/12/30 05:16:39;;;;;;;40.13;10.80;;;9.00;99.90;;;;;;4942158;28;20244;-95
2021/12/30 05:19:05;;;;;;;39.70;11.90;;;9.00;99.90;;;;;;4955858;29;20193;-95
2021/12/30 05:21:32;;;;;;;50.07;11.57;;;9.00;99.90;;;;;;4939824;29;20667;-94
2021/12/30 05:23:57;;;;;;;39.20;10.40;;;9.00;99.90;;;;;;4955727;29;20280;-94
2021/12/30 05:26:27;;;;;;;37.90;10.40;;;9.00;99.90;;;;;;4955894;28;20706;-94
2021/12/30 05:28:57;;;;;;;45.07;9.90;;;9.10;99.90;;;;;;4958881;28;20177;-94
2021/12/30 05:31:23;;;;;;;40.63;9.73;;;9.10;99.90;;;;;;4958372;28;20228;-94
2021/12/30 05:33:49;;;;;;;41.83;9.70;;;9.10;99.90;;;;;;4954997;28;20283;-94
2021/12/30 05:36:15;;;;;;;28.97;8.63;;;9.10;99.90;;;;;;4947843;28;20220;-95
2021/12/30 05:38:41;;;;;;;32.40;8.77;;;9.00;99.90;;;;;;4958997;28;20264;-94
2021/12/30 05:41:06;;;;;;;35.50;8.70;;;9.00;99.90;;;;;;4978670;28;20264;-94
2021/12/30 05:43:32;;;;;;;36.67;8.30;;;9.00;99.90;;;;;;4957577;28;20221;-94
2021/12/30 05:45:58;;;;;;;35.63;8.77;;;8.90;99.90;;;;;;4957625;29;20197;-94
2021/12/30 05:48:25;;;;;;;29.73;9.07;;;8.90;99.90;;;;;;4957921;28;20199;-94
2021/12/30 05:50:51;;;;;;;40.20;9.00;;;8.80;99.90;;;;;;4942539;29;20248;-94
2021/12/30 05:53:17;;;;;;;34.97;7.80;;;8.80;99.90;;;;;;4942327;29;20189;-94
2021/12/30 05:55:42;;;;;;;34.60;8.00;;;8.80;99.90;;;;;;4966782;28;20193;-94
2021/12/30 05:58:08;;;;;;;40.40;8.93;;;8.70;99.90;;;;;;4942117;28;20189;-95
2021/12/30 06:00:34;;;;;;;38.17;9.20;;;8.70;99.90;;;;;;4949350;28;20188;-94
2021/12/30 06:03:00;;;;;;;34.80;8.33;;;8.70;99.90;;;;;;4961646;28;20654;-95
2021/12/30 06:05:26;;;;;;;40.90;8.30;;;8.60;99.90;;;;;;4961282;28;20227;-94
2021/12/30 06:07:52;;;;;;;35.77;7.83;;;8.60;99.90;;;;;;4953768;29;20197;-94
2021/12/30 06:10:18;;;;;;;33.33;7.87;;;8.60;99.90;;;;;;4951875;29;20197;-94
2021/12/30 06:12:45;;;;;;;33.43;8.33;;;8.50;99.90;;;;;;4948353;28;20486;-95
2021/12/30 06:15:12;;;;;;;51.17;10.13;;;8.50;99.90;;;;;;4960311;28;20192;-94
2021/12/30 06:17:38;;;;;;;50.87;9.70;;;8.50;99.90;;;;;;4960214;28;20193;-94
2021/12/30 06:20:10;;;;;;;41.67;10.07;;;8.50;99.90;;;;;;4948291;29;20193;-94
2021/12/30 06:22:36;;;;;;;38.03;10.20;;;8.50;99.90;;;;;;4942508;29;20276;-94
2021/12/30 06:25:03;;;;;;;38.97;8.67;;;8.50;99.90;;;;;;4950965;28;20295;-94
2021/12/30 06:27:29;;;;;;;41.37;9.63;;;8.50;99.90;;;;;;4960784;28;20235;-94
2021/12/30 06:29:55;;;;;;;47.07;10.57;;;8.50;99.90;;;;;;4956453;29;20197;-93
2021/12/30 06:32:21;;;;;;;38.57;10.13;;;8.60;99.90;;;;;;4951591;29;20190;-95
2021/12/30 06:34:46;;;;;;;46.93;9.77;;;8.60;99.90;;;;;;4944432;28;20199;-94
2021/12/30 06:37:12;;;;;;;47.50;9.67;;;8.60;99.90;;;;;;4960293;28;20304;-93
2021/12/30 06:39:38;;;;;;;42.83;10.07;;;8.50;99.90;;;;;;4960453;28;20188;-94
2021/12/30 06:42:06;;;;;;;43.50;9.87;;;8.60;99.90;;;;;;4960518;28;20184;-95
2021/12/30 06:44:35;;;;;;;43.03;10.27;;;8.60;99.90;;;;;;4958533;28;20299;-94
2021/12/30 06:47:03;;;;;;;43.53;9.37;;;8.60;99.90;;;;;;4960579;28;20185;-94
2021/12/30 06:49:37;;;;;;;40.03;8.97;;;8.60;99.90;;;;;;4960331;28;20624;-96
2021/12/30 06:52:06;;;;;;;42.93;9.47;;;8.70;99.90;;;;;;4959061;28;20188;-94
2021/12/30 06:54:31;;;;;;;45.23;11.53;;;8.70;99.90;;;;;;4958519;28;20195;-94
2021/12/30 06:56:59;;;;;;;35.83;8.80;;;8.70;99.90;;;;;;4958934;28;20188;-93
2021/12/30 06:59:25;;;;;;;41.10;9.77;;;8.70;99.90;;;;;;4959643;28;20192;-94
2021/12/30 07:01:51;;;;;;;37.73;9.67;;;8.70;99.90;;;;;;4959546;28;20220;-94
2021/12/30 07:04:17;;;;;;;36.37;9.20;;;8.70;99.90;;;;;;4959865;28;20247;-94
2021/12/30 07:06:43;;;;;;;36.67;9.03;;;8.70;99.90;;;;;;4960203;28;20189;-94
2021/12/30 07:09:08;;;;;;;40.20;9.30;;;8.80;99.90;;;;;;4959649;28;20645;-93
2021/12/30 07:11:34;;;;;;;39.13;9.63;;;8.70;99.90;;;;;;4956085;29;20285;-95
2021/12/30 07:14:00;;;;;;;39.23;9.93;;;8.70;99.90;;;;;;4941218;29;20192;-94
2021/12/30 07:16:26;;;;;;;44.27;10.00;;;8.70;99.90;;;;;;4940864;29;20601;-95
2021/12/30 07:18:51;;;;;;;41.10;10.73;;;8.70;99.90;;;;;;4940728;29;20185;-95
2021/12/30 07:21:17;;;;;;;42.50;10.63;;;8.70;99.90;;;;;;4949060;28;20193;-94
2021/12/30 07:23:43;;;;;;;34.57;10.27;;;8.80;99.90;;;;;;4959373;28;20249;-93
2021/12/30 07:26:09;;;;;;;42.00;10.07;;;8.70;99.90;;;;;;4959433;28;20444;-93
2021/12/30 07:28:35;;;;;;;33.87;9.23;;;8.80;99.90;;;;;;4959634;28;20228;-93
2021/12/30 07:31:00;;;;;;;41.43;10.00;;;8.80;99.90;;;;;;4959327;28;20188;-93
2021/12/30 07:33:26;;;;;;;30.73;9.20;;;8.70;99.90;;;;;;4958999;28;20191;-93
2021/12/30 07:35:55;;;;;;;42.17;11.23;;;8.70;99.90;;;;;;4958975;28;20247;-93
2021/12/30 07:38:22;;;;;;;40.83;11.23;;;8.70;99.90;;;;;;4959322;28;20192;-94
2021/12/30 07:40:48;;;;;;;48.00;11.77;;;8.70;99.90;;;;;;4959180;28;20299;-93
2021/12/30 07:43:14;;;;;;;35.70;11.53;;;8.70;99.90;;;;;;4958976;28;20200;-94
2021/12/30 07:45:40;;;;;;;41.87;12.13;;;8.80;99.90;;;;;;4958793;28;20578;-94
2021/12/30 07:48:06;;;;;;;39.13;12.17;;;8.80;99.90;;;;;;4959101;28;20188;-94
2021/12/30 07:50:32;;;;;;;34.63;12.03;;;8.80;99.90;;;;;;4958892;28;20196;-93
2021/12/30 07:52:59;;;;;;;42.30;12.80;;;8.90;99.90;;;;;;4958661;28;20188;-93
2021/12/30 07:55:25;;;;;;;40.40;12.97;;;8.90;99.90;;;;;;4958795;28;20283;-93
2021/12/30 07:57:55;;;;;;;38.60;13.30;;;8.80;99.90;;;;;;4958369;28;20614;-93
2021/12/30 08:00:21;;;;;;;42.63;12.97;;;8.90;99.90;;;;;;4959097;28;20200;-93
2021/12/30 08:02:47;;;;;;;37.07;12.57;;;8.90;99.90;;;;;;4959327;28;20279;-94
2021/12/30 08:05:16;;;;;;;38.27;13.37;;;8.90;99.90;;;;;;4958699;28;20359;-94
2021/12/30 08:07:42;;;;;;;44.63;14.27;;;8.80;99.90;;;;;;4958892;28;20193;-93
2021/12/30 08:10:12;;;;;;;38.07;12.40;;;8.90;99.90;;;;;;4958822;28;20196;-93
2021/12/30 08:12:39;;;;;;;39.13;12.97;;;8.90;99.90;;;;;;4958659;28;20189;-93
2021/12/30 08:15:06;;;;;;;37.93;14.07;;;8.80;99.90;;;;;;4958491;28;20189;-93
2021/12/30 08:17:33;;;;;;;41.00;14.30;;;8.80;99.90;;;;;;4958869;28;20185;-93
2021/12/30 08:20:00;;;;;;;39.23;15.07;;;8.80;99.90;;;;;;4958772;28;20192;-94
2021/12/30 08:22:26;;;;;;;41.87;16.20;;;8.80;99.90;;;;;;4958179;28;20694;-94
2021/12/30 08:24:52;;;;;;;46.17;16.33;;;9.00;99.90;;;;;;4960070;28;20275;-93
2021/12/30 08:27:18;;;;;;;40.40;15.47;;;9.00;99.90;;;;;;4958837;28;20554;-95
2021/12/30 08:29:45;;;;;;;37.47;16.30;;;9.00;99.90;;;;;;4958302;28;20223;-92
2021/12/30 08:32:12;;;;;;;46.43;15.10;;;9.10;99.90;;;;;;4958454;28;20188;-92
2021/12/30 08:34:39;;;;;;;37.15;16.77;;;9.10;99.90;;;;;;4958337;28;20628;-92
2021/12/30 08:37:05;;;;;;;42.83;15.07;;;9.10;99.90;;;;;;4958205;28;20620;-91
2021/12/30 08:39:34;;;;;;;42.13;15.70;;;9.10;99.90;;;;;;4958728;28;20243;-92
2021/12/30 08:41:59;;;;;;;35.37;14.83;;;9.10;99.90;;;;;;4958203;28;20196;-92
2021/12/30 08:44:26;;;;;;;41.83;14.87;;;9.20;99.90;;;;;;4958247;28;20220;-92
2021/12/30 08:46:52;;;;;;;38.27;15.30;;;9.10;99.90;;;;;;4945843;28;20200;-90
2021/12/30 08:49:18;;;;;;;31.17;14.63;;;9.20;99.90;;;;;;4956085;28;20596;-91
2021/12/30 08:51:43;;;;;;;37.55;13.90;;;9.20;99.90;;;;;;4956570;28;20215;-92
2021/12/30 08:54:09;;;;;;;36.87;12.73;;;9.20;99.90;;;;;;4956675;28;20591;-92
2021/12/30 08:56:35;;;;;;;33.20;13.77;;;9.20;99.90;;;;;;4955786;28;20258;-91
2021/12/30 08:59:00;;;;;;;40.67;12.90;;;9.20;99.90;;;;;;4948817;28;20204;-93
2021/12/30 09:01:27;;;;;;;40.43;13.93;;;9.10;99.90;;;;;;4952178;28;20197;-92
2021/12/30 09:03:53;;;;;;;43.00;15.07;;;9.10;99.90;;;;;;4956296;28;20251;-91
2021/12/30 09:06:19;;;;;;;41.27;15.83;;;9.10;99.90;;;;;;4952887;28;20204;-91
2021/12/30 09:08:44;;;;;;;44.25;16.48;;;9.10;99.90;;;;;;4957291;28;20291;-92
2021/12/30 09:11:10;;;;;;;41.70;15.73;;;9.10;99.90;;;;;;4957213;28;20204;-92
2021/12/30 09:13:36;;;;;;;50.47;15.77;;;9.00;99.90;;;;;;4952578;28;20208;-92
2021/12/30 09:16:02;;;;;;;40.53;15.57;;;9.10;99.90;;;;;;4958115;28;20196;-91
2021/12/30 09:18:30;;;;;;;39.17;15.47;;;9.10;99.90;;;;;;4958124;28;20196;-91
2021/12/30 09:20:57;;;;;;;33.43;15.93;;;9.10;99.90;;;;;;4954084;28;20291;-90
2021/12/30 09:23:23;;;;;;;38.53;14.83;;;9.10;99.90;;;;;;4958112;28;20199;-91
2021/12/30 09:25:49;;;;;;;38.13;15.20;;;9.10;99.90;;;;;;4958112;28;20256;-91
2021/12/30 09:28:15;;;;;;;45.93;17.00;;;9.20;99.90;;;;;;4959019;28;20185;-91
2021/12/30 09:30:45;;;;;;;38.13;16.43;;;9.10;99.90;;;;;;4959736;28;20215;-92
2021/12/30 09:33:15;;;;;;;47.00;15.37;;;9.20;99.90;;;;;;4958375;28;20193;-91
2021/12/30 09:35:42;;;;;;;31.27;14.20;;;9.30;99.90;;;;;;4959578;28;20691;-92
2021/12/30 09:38:07;;;;;;;41.03;15.00;;;9.30;99.90;;;;;;4960032;28;20626;-92
2021/12/30 09:40:33;;;;;;;39.13;14.87;;;9.30;99.90;;;;;;4959405;28;20197;-91
2021/12/30 09:43:04;;;;;;;34.73;13.07;;;9.30;99.90;;;;;;4954622;28;20204;-93
2021/12/30 09:45:33;;;;;;;37.20;13.20;;;9.50;99.90;;;;;;4959222;28;20235;-92
2021/12/30 09:48:03;;;;;;;27.70;12.87;;;9.50;99.90;;;;;;4960919;28;20276;-93
2021/12/30 09:50:33;;;;;;;33.05;12.32;;;9.60;99.90;;;;;;4961513;28;20699;-92
2021/12/30 09:53:00;;;;;;;45.70;12.93;;;9.50;99.90;;;;;;4961641;28;20181;-92
2021/12/30 09:55:26;;;;;;;34.40;13.57;;;9.60;99.90;;;;;;4945549;28;20208;-93
2021/12/30 09:57:53;;;;;;;27.87;11.03;;;9.60;99.90;;;;;;4961995;28;20188;-93
2021/12/30 10:00:19;;;;;;;29.83;12.27;;;9.60;99.90;;;;;;4962169;28;20543;-92
2021/12/30 10:02:45;;;;;;;25.53;11.23;;;9.60;99.90;;;;;;4961958;28;20188;-93
2021/12/30 10:05:14;;;;;;;32.43;11.17;;;9.60;99.90;;;;;;4962178;28;20231;-94
2021/12/30 10:07:41;;;;;;;31.20;10.93;;;9.70;99.90;;;;;;4962267;28;20228;-94
2021/12/30 10:10:27;;;;;;;28.67;10.17;;;9.70;99.90;;;;;;4962003;28;20196;-94
2021/12/30 10:12:56;;;;;;;35.53;9.23;;;9.80;99.90;;;;;;4961276;28;20223;-93
2021/12/30 10:15:26;;;;;;;28.37;9.47;;;9.80;99.90;;;;;;4960347;28;20561;-93
2021/12/30 10:18:00;;;;;;;19.20;8.35;;;9.80;99.90;;;;;;4960806;28;20199;-93
2021/12/30 10:20:28;;;;;;;28.17;9.10;;;9.90;99.90;;;;;;4961694;28;20632;-95
2021/12/30 10:22:57;;;;;;;24.90;8.93;;;9.90;99.90;;;;;;4961364;28;20172;-95
2021/12/30 10:25:34;;;;;;;21.02;8.57;;;9.90;99.90;;;;;;4960218;28;20252;-93
2021/12/30 10:28:26;;;;;;;26.45;8.40;;;9.90;99.90;;;;;;4957759;28;20185;-93
2021/12/30 10:30:55;;;;;;;26.33;8.68;;;10.00;99.90;;;;;;4959942;28;20188;-95
2021/12/30 10:33:24;;;;;;;24.70;8.80;;;10.00;99.90;;;;;;4960892;28;20192;-93
2021/12/30 10:35:51;;;;;;;18.90;7.70;;;10.00;99.90;;;;;;4960585;28;20188;-94
2021/12/30 10:38:17;;;;;;;21.73;7.37;;;10.00;99.90;;;;;;4958791;28;20190;-93
2021/12/30 10:40:45;;;;;;;27.97;7.77;;;10.00;99.90;;;;;;4960110;28;20195;-93
2021/12/30 10:43:29;;;;;;;19.67;7.47;;;10.00;99.90;;;;;;4974520;28;20192;-94
2021/12/30 10:46:17;;;;;;;22.38;6.60;;;10.10;99.90;;;;;;4960323;28;20279;-94
2021/12/30 10:48:54;;;;;;;27.45;7.57;;;10.10;99.90;;;;;;4945435;28;20189;-94
2021/12/30 10:51:38;;;;;;;20.85;6.60;;;10.10;99.90;;;;;;4967320;28;20200;-94
2021/12/30 10:54:35;;;;;;;20.67;7.35;;;10.10;99.90;;;;;;4966623;28;20247;-93
2021/12/30 10:57:06;;;;;;;14.23;6.57;;;10.10;99.90;;;;;;4962633;28;20211;-95
2021/12/30 10:59:51;;;;;;;18.40;7.05;;;10.20;99.90;;;;;;4965021;28;20262;-96
2021/12/30 11:02:26;;;;;;;14.32;5.50;;;10.20;99.90;;;;;;4966694;28;20189;-93
2021/12/30 11:05:02;;;;;;;15.80;6.25;;;10.30;99.90;;;;;;4966392;28;20312;-94
2021/12/30 11:07:53;;;;;;;12.85;5.05;;;10.30;99.90;;;;;;4964559;28;20177;-95
2021/12/30 11:10:36;;;;;;;10.70;5.67;;;10.40;99.90;;;;;;4965295;28;20192;-94
2021/12/30 11:13:10;;;;;;;13.35;4.68;;;10.40;99.90;;;;;;4963479;28;20233;-93
2021/12/30 11:15:36;;;;;;;10.02;4.70;;;10.40;99.90;;;;;;4961640;28;20239;-95
2021/12/30 11:18:07;;;;;;;12.20;4.38;;;10.40;99.90;;;;;;4962577;28;20188;-96
2021/12/30 11:20:42;;;;;;;11.48;4.38;;;10.50;99.90;;;;;;4962177;28;20193;-96
2021/12/30 11:23:10;;;;;;;12.30;4.63;;;10.50;99.90;;;;;;4964044;28;20180;-96
2021/12/30 11:25:36;;;;;;;13.25;4.57;;;10.50;99.90;;;;;;4962560;28;20244;-95
2021/12/30 11:28:05;;;;;;;7.63;4.90;;;10.50;99.90;;;;;;4978701;28;20239;-96
2021/12/30 11:30:31;;;;;;;5.90;4.57;;;10.60;99.90;;;;;;4962881;28;20193;-96
2021/12/30 11:32:56;;;;;;;11.13;4.47;;;10.60;99.90;;;;;;4963695;28;20242;-95
2021/12/30 11:35:26;;;;;;;11.18;4.60;;;10.70;99.90;;;;;;4961297;28;20185;-95
2021/12/30 11:37:53;;;;;;;10.55;4.63;;;10.70;99.90;;;;;;4961317;28;20268;-95
2021/12/30 11:40:23;;;;;;;9.77;4.63;;;10.70;99.90;;;;;;4963814;28;20196;-93
2021/12/30 11:43:07;;;;;;;10.02;4.50;;;10.70;99.90;;;;;;4971731;28;20181;-95
2021/12/30 11:45:38;;;;;;;11.18;4.50;;;10.70;99.90;;;;;;4968559;28;20220;-95
2021/12/30 11:48:25;;;;;;;5.97;4.10;;;10.70;99.90;;;;;;4960268;28;20204;-95
2021/12/30 11:51:06;;;;;;;9.48;4.28;;;10.60;99.90;;;;;;4958750;28;20196;-94
2021/12/30 11:53:32;;;;;;;6.25;3.85;;;10.70;99.90;;;;;;4958740;28;20239;-94
2021/12/30 11:56:06;;;;;;;9.80;4.18;;;10.60;99.90;;;;;;4958863;28;20200;-94
2021/12/30 12:01:14;;;;;;;8.50;3.97;;;10.70;99.90;;;;;;4974952;28;20259;-94
2021/12/30 12:03:53;;;;;;;7.25;4.43;;;10.70;99.90;;;;;;4956443;28;20192;-94
2021/12/30 12:06:31;;;;;;;7.53;4.22;;;10.80;99.90;;;;;;4956738;28;20293;-93
2021/12/30 12:09:14;;;;;;;9.60;4.38;;;10.80;99.90;;;;;;4958085;28;20260;-94
2021/12/30 12:11:45;;;;;;;6.38;4.20;;;10.80;99.90;;;;;;4953860;29;20228;-94
2021/12/30 12:14:20;;;;;;;6.90;3.80;;;10.80;99.90;;;;;;4938663;29;20195;-93
2021/12/30 12:16:59;;;;;;;5.72;3.95;;;10.80;99.90;;;;;;4939336;29;20192;-94
2021/12/30 12:19:33;;;;;;;8.48;3.95;;;10.80;99.90;;;;;;4939905;29;20271;-94
2021/12/30 12:22:00;;;;;;;6.40;4.10;;;10.80;99.90;;;;;;4939437;29;20193;-95
2021/12/30 12:24:29;;;;;;;5.65;3.78;;;10.80;99.90;;;;;;4940527;28;20304;-94
2021/12/30 12:26:58;;;;;;;4.22;3.75;;;10.90;99.90;;;;;;4958213;28;20188;-94
2021/12/30 12:29:42;;;;;;;8.38;3.80;;;10.90;99.90;;;;;;4958805;28;20377;-94
2021/12/30 12:32:16;;;;;;;6.10;3.67;;;10.90;99.90;;;;;;4959449;28;20612;-95
2021/12/30 12:34:51;;;;;;;7.47;4.60;;;10.90;99.90;;;;;;4959363;28;20235;-94
2021/12/30 12:37:32;;;;;;;6.63;4.40;;;10.90;99.90;;;;;;4958948;28;20194;-95
2021/12/30 12:40:16;;;;;;;5.95;4.60;;;11.00;99.90;;;;;;4959330;28;20185;-93
2021/12/30 12:42:51;;;;;;;10.05;5.35;;;11.00;99.90;;;;;;4959275;28;20184;-93
2021/12/30 12:45:19;;;;;;;8.25;5.57;;;11.10;99.90;;;;;;4958986;28;20220;-94
2021/12/30 12:47:46;;;;;;;8.50;5.50;;;11.10;99.90;;;;;;4958815;28;20270;-95
2021/12/30 12:50:12;;;;;;;8.98;5.97;;;11.20;99.90;;;;;;4960972;28;20654;-94
2021/12/30 12:52:44;;;;;;;10.98;6.53;;;11.20;99.90;;;;;;4963299;28;20189;-94
2021/12/30 12:55:18;;;;;;;10.45;6.30;;;11.20;99.90;;;;;;4962726;28;20647;-94